sensor_id;sensor_type;location;lat;lon;timestamp;temperature;humidity
19025;DHT22;9645;51.448;6.260;2023-08-20T00:00:13;18.30;99.90
19025;DHT22;9645;51.448;6.260;2023-08-20T00:02:42;18.20;99.90
19025;DHT22;9645;51.448;6.260;2023-08-20T00:05:10;18.20;99.90
19025;DHT22;9645;51.448;6.260;2023-08-20T00:07:37;18.20;99.90
19025;DHT22;9645;51.448;6.260;2023-08-20T00:10:07;18.10;99.90
19025;DHT22;9645;51.448;6.260;2023-08-20T00:12:35;18.10;99.90
19025;DHT22;9645;51.448;6.260;2023-08-20T00:15:04;18.00;99.90
19025;DHT22;9645;51.448;6.260;2023-08-20T00:17:32;18.00;99.90
19025;DHT22;9645;51.448;6.260;2023-08-20T00:20:00;17.90;99.90
19025;DHT22;9645;51.448;6.260;2023-08-20T00:22:27;17.90;99.90
19025;DHT22;9645;51.448;6.260;2023-08-20T00:24:55;17.90;99.90
19025;DHT22;9645;51.448;6.260;2023-08-20T00:27:23;17.90;99.90
19025;DHT22;9645;51.448;6.260;2023-08-20T00:29:50;17.80;99.90
19025;DHT22;9645;51.448;6.260;2023-08-20T00:32:17;17.80;99.90
19025;DHT22;9645;51.448;6.260;2023-08-20T00:34:44;17.80;99.90
19025;DHT22;9645;51.448;6.260;2023-08-20T00:37:11;17.80;99.90
19025;DHT22;9645;51.448;6.260;2023-08-20T00:39:39;17.80;99.90
19025;DHT22;9645;51.448;6.260;2023-08-20T00:42:06;17.70;99.90
19025;DHT22;9645;51.448;6.260;2023-08-20T00:44:37;17.70;99.90
19025;DHT22;9645;51.448;6.260;2023-08-20T00:47:06;17.70;99.90
19025;DHT22;9645;51.448;6.260;2023-08-20T00:49:34;17.60;99.90
19025;DHT22;9645;51.448;6.260;2023-08-20T00:52:02;17.60;99.90
19025;DHT22;9645;51.448;6.260;2023-08-20T00:54:29;17.60;99.90
19025;DHT22;9645;51.448;6.260;2023-08-20T00:56:58;17.60;99.90
19025;DHT22;9645;51.448;6.260;2023-08-20T00:59:26;17.60;99.90
19025;DHT22;9645;51.448;6.260;2023-08-20T01:01:55;17.70;99.90
19025;DHT22;9645;51.448;6.260;2023-08-20T01:04:22;17.80;99.90
19025;DHT22;9645;51.448;6.260;2023-08-20T01:06:53;17.90;99.90
19025;DHT22;9645;51.448;6.260;2023-08-20T01:09:26;18.00;99.90
19025;DHT22;9645;51.448;6.260;2023-08-20T01:11:59;18.10;99.90
19025;DHT22;9645;51.448;6.260;2023-08-20T01:14:26;18.20;99.90
19025;DHT22;9645;51.448;6.260;2023-08-20T01:16:55;18.20;99.90
19025;DHT22;9645;51.448;6.260;2023-08-20T01:19:22;18.30;99.90
19025;DHT22;9645;51.448;6.260;2023-08-20T01:22:00;18.30;99.90
19025;DHT22;9645;51.448;6.260;2023-08-20T01:24:43;18.30;99.90
19025;DHT22;9645;51.448;6.260;2023-08-20T01:27:25;18.40;99.90
19025;DHT22;9645;51.448;6.260;2023-08-20T01:29:55;18.40;99.90
19025;DHT22;9645;51.448;6.260;2023-08-20T01:32:23;18.40;99.90
19025;DHT22;9645;51.448;6.260;2023-08-20T01:34:51;18.30;99.90
19025;DHT22;9645;51.448;6.260;2023-08-20T01:37:18;18.30;99.90
19025;DHT22;9645;51.448;6.260;2023-08-20T01:39:45;18.20;99.90
19025;DHT22;9645;51.448;6.260;2023-08-20T01:42:12;18.10;99.90
19025;DHT22;9645;51.448;6.260;2023-08-20T01:44:39;18.10;99.90
19025;DHT22;9645;51.448;6.260;2023-08-20T01:47:07;18.00;99.90
19025;DHT22;9645;51.448;6.260;2023-08-20T01:49:34;17.90;99.90
19025;DHT22;9645;51.448;6.260;2023-08-20T01:52:01;17.90;99.90
19025;DHT22;9645;51.448;6.260;2023-08-20T01:54:29;17.90;99.90
19025;DHT22;9645;51.448;6.260;2023-08-20T01:56:56;17.90;99.90
19025;DHT22;9645;51.448;6.260;2023-08-20T01:59:23;17.80;99.90
19025;DHT22;9645;51.448;6.260;2023-08-20T02:01:50;17.90;99.90
19025;DHT22;9645;51.448;6.260;2023-08-20T02:04:19;17.90;99.90
19025;DHT22;9645;51.448;6.260;2023-08-20T02:06:46;17.90;99.90
19025;DHT22;9645;51.448;6.260;2023-08-20T02:09:13;18.00;99.90
19025;DHT22;9645;51.448;6.260;2023-08-20T02:11:40;18.00;99.90
19025;DHT22;9645;51.448;6.260;2023-08-20T02:14:07;18.00;99.90
19025;DHT22;9645;51.448;6.260;2023-08-20T02:16:34;18.10;99.90
19025;DHT22;9645;51.448;6.260;2023-08-20T02:19:02;18.10;99.90
19025;DHT22;9645;51.448;6.260;2023-08-20T02:21:32;18.10;99.90
19025;DHT22;9645;51.448;6.260;2023-08-20T02:23:59;18.00;99.90
19025;DHT22;9645;51.448;6.260;2023-08-20T02:26:26;18.00;99.90
19025;DHT22;9645;51.448;6.260;2023-08-20T02:28:53;18.00;99.90
19025;DHT22;9645;51.448;6.260;2023-08-20T02:31:20;18.00;99.90
19025;DHT22;9645;51.448;6.260;2023-08-20T02:33:47;17.90;99.90
19025;DHT22;9645;51.448;6.260;2023-08-20T02:36:14;18.00;99.90
19025;DHT22;9645;51.448;6.260;2023-08-20T02:38:44;18.00;99.90
19025;DHT22;9645;51.448;6.260;2023-08-20T02:41:11;18.00;99.90
19025;DHT22;9645;51.448;6.260;2023-08-20T02:43:38;18.00;99.90
19025;DHT22;9645;51.448;6.260;2023-08-20T02:46:06;18.00;99.90
19025;DHT22;9645;51.448;6.260;2023-08-20T02:48:33;18.00;99.90
19025;DHT22;9645;51.448;6.260;2023-08-20T02:51:00;18.00;99.90
19025;DHT22;9645;51.448;6.260;2023-08-20T02:53:28;18.10;99.90
19025;DHT22;9645;51.448;6.260;2023-08-20T02:55:56;18.00;99.90
19025;DHT22;9645;51.448;6.260;2023-08-20T02:58:23;18.00;99.90
19025;DHT22;9645;51.448;6.260;2023-08-20T03:00:50;18.00;99.90
19025;DHT22;9645;51.448;6.260;2023-08-20T03:03:18;18.00;99.90
19025;DHT22;9645;51.448;6.260;2023-08-20T03:05:45;18.10;99.90
19025;DHT22;9645;51.448;6.260;2023-08-20T03:08:12;18.10;99.90
19025;DHT22;9645;51.448;6.260;2023-08-20T03:10:39;18.10;99.90
19025;DHT22;9645;51.448;6.260;2023-08-20T03:13:07;18.00;99.90
19025;DHT22;9645;51.448;6.260;2023-08-20T03:15:34;18.00;99.90
19025;DHT22;9645;51.448;6.260;2023-08-20T03:18:01;18.00;99.90
19025;DHT22;9645;51.448;6.260;2023-08-20T03:20:28;17.90;99.90
19025;DHT22;9645;51.448;6.260;2023-08-20T03:22:56;17.90;99.90
19025;DHT22;9645;51.448;6.260;2023-08-20T03:25:24;17.80;99.90
19025;DHT22;9645;51.448;6.260;2023-08-20T03:27:51;17.80;99.90
19025;DHT22;9645;51.448;6.260;2023-08-20T03:30:20;17.80;99.90
19025;DHT22;9645;51.448;6.260;2023-08-20T03:32:47;17.70;99.90
19025;DHT22;9645;51.448;6.260;2023-08-20T03:35:14;17.70;99.90
19025;DHT22;9645;51.448;6.260;2023-08-20T03:37:41;17.60;99.90
19025;DHT22;9645;51.448;6.260;2023-08-20T03:40:09;17.50;99.90
19025;DHT22;9645;51.448;6.260;2023-08-20T03:42:36;17.50;99.90
19025;DHT22;9645;51.448;6.260;2023-08-20T03:45:03;17.50;99.90
19025;DHT22;9645;51.448;6.260;2023-08-20T03:47:32;17.40;99.90
19025;DHT22;9645;51.448;6.260;2023-08-20T03:49:59;17.40;99.90
19025;DHT22;9645;51.448;6.260;2023-08-20T03:52:25;17.40;99.90
19025;DHT22;9645;51.448;6.260;2023-08-20T03:54:53;17.30;99.90
19025;DHT22;9645;51.448;6.260;2023-08-20T03:57:20;17.40;99.90
19025;DHT22;9645;51.448;6.260;2023-08-20T03:59:47;17.40;99.90
19025;DHT22;9645;51.448;6.260;2023-08-20T04:02:15;17.30;99.90
19025;DHT22;9645;51.448;6.260;2023-08-20T04:04:43;17.30;99.90
19025;DHT22;9645;51.448;6.260;2023-08-20T04:07:10;17.30;99.90
19025;DHT22;9645;51.448;6.260;2023-08-20T04:09:37;17.20;99.90
19025;DHT22;9645;51.448;6.260;2023-08-20T04:12:06;17.20;99.90
19025;DHT22;9645;51.448;6.260;2023-08-20T04:14:33;17.20;99.90
19025;DHT22;9645;51.448;6.260;2023-08-20T04:17:00;17.10;99.90
19025;DHT22;9645;51.448;6.260;2023-08-20T04:19:27;17.10;99.90
19025;DHT22;9645;51.448;6.260;2023-08-20T04:21:55;17.10;99.90
19025;DHT22;9645;51.448;6.260;2023-08-20T04:24:22;17.00;99.90
19025;DHT22;9645;51.448;6.260;2023-08-20T04:26:49;17.00;99.90
19025;DHT22;9645;51.448;6.260;2023-08-20T04:29:16;17.00;99.90
19025;DHT22;9645;51.448;6.260;2023-08-20T04:31:44;17.00;99.90
19025;DHT22;9645;51.448;6.260;2023-08-20T04:34:11;17.00;99.90
19025;DHT22;9645;51.448;6.260;2023-08-20T04:36:38;17.00;99.90
19025;DHT22;9645;51.448;6.260;2023-08-20T04:39:06;16.90;99.90
19025;DHT22;9645;51.448;6.260;2023-08-20T04:41:33;17.00;99.90
19025;DHT22;9645;51.448;6.260;2023-08-20T04:44:00;17.20;99.90
19025;DHT22;9645;51.448;6.260;2023-08-20T04:46:27;17.00;99.90
19025;DHT22;9645;51.448;6.260;2023-08-20T04:48:54;16.90;99.90
19025;DHT22;9645;51.448;6.260;2023-08-20T04:51:22;16.90;99.90
19025;DHT22;9645;51.448;6.260;2023-08-20T04:53:49;16.90;99.90
19025;DHT22;9645;51.448;6.260;2023-08-20T04:56:17;16.90;99.90
19025;DHT22;9645;51.448;6.260;2023-08-20T04:58:44;17.00;99.90
19025;DHT22;9645;51.448;6.260;2023-08-20T05:01:11;17.00;99.90
19025;DHT22;9645;51.448;6.260;2023-08-20T05:03:38;17.10;99.90
19025;DHT22;9645;51.448;6.260;2023-08-20T05:06:05;17.10;99.90
19025;DHT22;9645;51.448;6.260;2023-08-20T05:08:32;17.10;99.90
19025;DHT22;9645;51.448;6.260;2023-08-20T05:10:59;17.20;99.90
19025;DHT22;9645;51.448;6.260;2023-08-20T05:13:28;17.20;99.90
19025;DHT22;9645;51.448;6.260;2023-08-20T05:15:55;17.30;99.90
19025;DHT22;9645;51.448;6.260;2023-08-20T05:18:22;17.40;99.90
19025;DHT22;9645;51.448;6.260;2023-08-20T05:20:49;17.50;99.90
19025;DHT22;9645;51.448;6.260;2023-08-20T05:23:16;17.50;99.90
19025;DHT22;9645;51.448;6.260;2023-08-20T05:25:43;17.60;99.90
19025;DHT22;9645;51.448;6.260;2023-08-20T05:28:09;17.70;99.90
19025;DHT22;9645;51.448;6.260;2023-08-20T05:30:38;17.80;99.90
19025;DHT22;9645;51.448;6.260;2023-08-20T05:33:05;17.90;99.90
19025;DHT22;9645;51.448;6.260;2023-08-20T05:35:32;18.00;99.90
19025;DHT22;9645;51.448;6.260;2023-08-20T05:37:58;18.20;99.90
19025;DHT22;9645;51.448;6.260;2023-08-20T05:40:25;18.30;99.90
19025;DHT22;9645;51.448;6.260;2023-08-20T05:42:52;18.40;99.90
19025;DHT22;9645;51.448;6.260;2023-08-20T05:45:19;18.50;99.90
19025;DHT22;9645;51.448;6.260;2023-08-20T05:47:47;18.60;99.90
19025;DHT22;9645;51.448;6.260;2023-08-20T05:50:15;18.70;99.90
19025;DHT22;9645;51.448;6.260;2023-08-20T05:52:41;18.80;99.90
19025;DHT22;9645;51.448;6.260;2023-08-20T05:55:08;18.90;99.90
19025;DHT22;9645;51.448;6.260;2023-08-20T05:57:36;19.10;99.90
19025;DHT22;9645;51.448;6.260;2023-08-20T06:00:04;19.10;99.90
19025;DHT22;9645;51.448;6.260;2023-08-20T06:04:59;19.70;99.90
19025;DHT22;9645;51.448;6.260;2023-08-20T06:07:26;19.50;99.90
19025;DHT22;9645;51.448;6.260;2023-08-20T06:09:53;19.70;99.90
19025;DHT22;9645;51.448;6.260;2023-08-20T06:12:20;19.90;99.90
19025;DHT22;9645;51.448;6.260;2023-08-20T06:14:47;20.10;99.90
19025;DHT22;9645;51.448;6.260;2023-08-20T06:17:14;20.30;99.90
19025;DHT22;9645;51.448;6.260;2023-08-20T06:19:42;20.50;99.90
19025;DHT22;9645;51.448;6.260;2023-08-20T06:22:11;20.70;99.90
19025;DHT22;9645;51.448;6.260;2023-08-20T06:24:38;20.80;99.90
19025;DHT22;9645;51.448;6.260;2023-08-20T06:27:05;21.10;99.90
19025;DHT22;9645;51.448;6.260;2023-08-20T06:29:32;21.30;99.90
19025;DHT22;9645;51.448;6.260;2023-08-20T06:31:59;21.50;99.90
19025;DHT22;9645;51.448;6.260;2023-08-20T06:34:26;21.70;99.90
19025;DHT22;9645;51.448;6.260;2023-08-20T06:36:54;21.90;99.90
19025;DHT22;9645;51.448;6.260;2023-08-20T06:39:22;22.00;99.90
19025;DHT22;9645;51.448;6.260;2023-08-20T06:41:49;22.20;99.90
19025;DHT22;9645;51.448;6.260;2023-08-20T06:44:16;22.40;99.90
19025;DHT22;9645;51.448;6.260;2023-08-20T06:46:43;22.50;99.90
19025;DHT22;9645;51.448;6.260;2023-08-20T06:49:10;22.70;99.90
19025;DHT22;9645;51.448;6.260;2023-08-20T06:51:37;22.90;99.90
19025;DHT22;9645;51.448;6.260;2023-08-20T06:54:04;23.10;99.90
19025;DHT22;9645;51.448;6.260;2023-08-20T06:56:33;23.20;32.90
19025;DHT22;9645;51.448;6.260;2023-08-20T06:59:00;23.40;1.00
19025;DHT22;9645;51.448;6.260;2023-08-20T07:01:28;23.50;1.00
19025;DHT22;9645;51.448;6.260;2023-08-20T07:03:55;23.70;1.00
19025;DHT22;9645;51.448;6.260;2023-08-20T07:06:22;23.80;1.00
19025;DHT22;9645;51.448;6.260;2023-08-20T07:08:49;23.90;1.00
19025;DHT22;9645;51.448;6.260;2023-08-20T07:11:16;24.20;1.00
19025;DHT22;9645;51.448;6.260;2023-08-20T07:13:45;24.50;1.00
19025;DHT22;9645;51.448;6.260;2023-08-20T07:16:11;24.60;1.00
19025;DHT22;9645;51.448;6.260;2023-08-20T07:18:38;24.80;1.00
19025;DHT22;9645;51.448;6.260;2023-08-20T07:21:05;25.10;1.00
19025;DHT22;9645;51.448;6.260;2023-08-20T07:23:33;25.40;1.00
19025;DHT22;9645;51.448;6.260;2023-08-20T07:26:08;25.70;99.90
19025;DHT22;9645;51.448;6.260;2023-08-20T07:28:36;25.70;1.00
19025;DHT22;9645;51.448;6.260;2023-08-20T07:31:22;25.80;99.90
19025;DHT22;9645;51.448;6.260;2023-08-20T07:33:49;26.00;1.00
19025;DHT22;9645;51.448;6.260;2023-08-20T07:36:17;26.20;1.00
19025;DHT22;9645;51.448;6.260;2023-08-20T07:38:44;26.50;99.90
19025;DHT22;9645;51.448;6.260;2023-08-20T07:41:11;26.80;99.90
19025;DHT22;9645;51.448;6.260;2023-08-20T07:43:39;27.10;1.00
19025;DHT22;9645;51.448;6.260;2023-08-20T07:46:07;27.20;61.20
19025;DHT22;9645;51.448;6.260;2023-08-20T07:51:03;27.60;1.00
19025;DHT22;9645;51.448;6.260;2023-08-20T07:53:30;27.70;1.00
19025;DHT22;9645;51.448;6.260;2023-08-20T07:55:58;27.60;1.00
19025;DHT22;9645;51.448;6.260;2023-08-20T07:58:25;27.70;1.00
19025;DHT22;9645;51.448;6.260;2023-08-20T08:00:53;27.90;1.00
19025;DHT22;9645;51.448;6.260;2023-08-20T08:03:20;28.00;1.00
19025;DHT22;9645;51.448;6.260;2023-08-20T08:05:49;28.00;8.10
19025;DHT22;9645;51.448;6.260;2023-08-20T08:08:17;28.40;99.90
19025;DHT22;9645;51.448;6.260;2023-08-20T08:10:44;28.60;19.40
19025;DHT22;9645;51.448;6.260;2023-08-20T08:13:12;28.80;33.60
19025;DHT22;9645;51.448;6.260;2023-08-20T08:15:39;29.10;1.00
19025;DHT22;9645;51.448;6.260;2023-08-20T08:18:07;29.10;1.00
19025;DHT22;9645;51.448;6.260;2023-08-20T08:20:34;28.80;99.90
19025;DHT22;9645;51.448;6.260;2023-08-20T08:23:02;29.10;1.00
19025;DHT22;9645;51.448;6.260;2023-08-20T08:25:29;29.40;1.00
19025;DHT22;9645;51.448;6.260;2023-08-20T08:27:56;29.60;99.90
19025;DHT22;9645;51.448;6.260;2023-08-20T08:30:23;29.70;1.00
19025;DHT22;9645;51.448;6.260;2023-08-20T08:32:50;29.70;77.90
19025;DHT22;9645;51.448;6.260;2023-08-20T08:37:45;30.20;99.90
19025;DHT22;9645;51.448;6.260;2023-08-20T08:40:13;30.50;1.00
19025;DHT22;9645;51.448;6.260;2023-08-20T08:45:09;31.00;99.90
19025;DHT22;9645;51.448;6.260;2023-08-20T08:47:39;31.10;99.90
19025;DHT22;9645;51.448;6.260;2023-08-20T08:50:08;31.10;1.00
19025;DHT22;9645;51.448;6.260;2023-08-20T08:52:38;31.00;99.90
19025;DHT22;9645;51.448;6.260;2023-08-20T08:55:06;31.10;99.90
19025;DHT22;9645;51.448;6.260;2023-08-20T08:57:36;31.20;99.90
19025;DHT22;9645;51.448;6.260;2023-08-20T09:00:03;31.30;99.90
19025;DHT22;9645;51.448;6.260;2023-08-20T09:02:32;31.60;99.90
19025;DHT22;9645;51.448;6.260;2023-08-20T09:04:59;31.90;99.90
19025;DHT22;9645;51.448;6.260;2023-08-20T09:07:25;32.20;99.90
19025;DHT22;9645;51.448;6.260;2023-08-20T09:09:57;31.90;99.90
19025;DHT22;9645;51.448;6.260;2023-08-20T09:12:24;31.90;99.90
19025;DHT22;9645;51.448;6.260;2023-08-20T09:14:53;31.80;99.90
19025;DHT22;9645;51.448;6.260;2023-08-20T09:17:25;31.90;99.90
19025;DHT22;9645;51.448;6.260;2023-08-20T09:19:54;32.10;99.90
19025;DHT22;9645;51.448;6.260;2023-08-20T09:22:22;32.20;99.90
19025;DHT22;9645;51.448;6.260;2023-08-20T09:27:20;33.20;99.90
19025;DHT22;9645;51.448;6.260;2023-08-20T09:29:48;33.30;99.90
19025;DHT22;9645;51.448;6.260;2023-08-20T09:32:18;33.10;1.00
19025;DHT22;9645;51.448;6.260;2023-08-20T09:34:45;32.90;1.00
19025;DHT22;9645;51.448;6.260;2023-08-20T09:37:14;33.00;99.90
19025;DHT22;9645;51.448;6.260;2023-08-20T09:39:41;33.40;15.00
19025;DHT22;9645;51.448;6.260;2023-08-20T09:42:09;33.10;64.40
19025;DHT22;9645;51.448;6.260;2023-08-20T09:44:38;33.30;1.00
19025;DHT22;9645;51.448;6.260;2023-08-20T09:47:07;33.20;1.00
19025;DHT22;9645;51.448;6.260;2023-08-20T09:49:39;33.40;1.00
19025;DHT22;9645;51.448;6.260;2023-08-20T09:52:08;33.60;1.00
19025;DHT22;9645;51.448;6.260;2023-08-20T09:54:42;33.50;99.90
19025;DHT22;9645;51.448;6.260;2023-08-20T09:57:18;33.60;1.00
19025;DHT22;9645;51.448;6.260;2023-08-20T09:59:48;34.00;12.00
19025;DHT22;9645;51.448;6.260;2023-08-20T10:02:16;34.30;98.00
19025;DHT22;9645;51.448;6.260;2023-08-20T10:04:44;34.10;1.00
19025;DHT22;9645;51.448;6.260;2023-08-20T10:07:12;33.90;1.00
19025;DHT22;9645;51.448;6.260;2023-08-20T10:09:39;34.00;99.90
19025;DHT22;9645;51.448;6.260;2023-08-20T10:12:07;34.30;99.90
19025;DHT22;9645;51.448;6.260;2023-08-20T10:14:34;34.00;1.00
19025;DHT22;9645;51.448;6.260;2023-08-20T10:17:07;34.30;1.00
19025;DHT22;9645;51.448;6.260;2023-08-20T10:19:34;34.30;99.90
19025;DHT22;9645;51.448;6.260;2023-08-20T10:22:04;34.50;1.00
19025;DHT22;9645;51.448;6.260;2023-08-20T10:24:41;34.60;99.90
19025;DHT22;9645;51.448;6.260;2023-08-20T10:27:09;34.30;99.90
19025;DHT22;9645;51.448;6.260;2023-08-20T10:29:37;34.60;1.00
19025;DHT22;9645;51.448;6.260;2023-08-20T10:32:06;34.50;1.00
19025;DHT22;9645;51.448;6.260;2023-08-20T10:34:36;34.30;99.90
19025;DHT22;9645;51.448;6.260;2023-08-20T10:37:10;34.50;1.00
19025;DHT22;9645;51.448;6.260;2023-08-20T10:39:37;34.40;1.00
19025;DHT22;9645;51.448;6.260;2023-08-20T10:42:25;34.40;99.90
19025;DHT22;9645;51.448;6.260;2023-08-20T10:44:57;34.60;1.00
19025;DHT22;9645;51.448;6.260;2023-08-20T10:47:24;34.20;1.00
19025;DHT22;9645;51.448;6.260;2023-08-20T10:49:52;34.10;99.90
19025;DHT22;9645;51.448;6.260;2023-08-20T10:52:22;33.80;99.90
19025;DHT22;9645;51.448;6.260;2023-08-20T10:54:50;33.90;1.00
19025;DHT22;9645;51.448;6.260;2023-08-20T10:57:18;33.50;99.90
19025;DHT22;9645;51.448;6.260;2023-08-20T10:59:56;33.70;99.90
19025;DHT22;9645;51.448;6.260;2023-08-20T11:02:25;33.80;1.00
19025;DHT22;9645;51.448;6.260;2023-08-20T11:04:52;33.50;99.90
19025;DHT22;9645;51.448;6.260;2023-08-20T11:07:23;33.80;1.00
19025;DHT22;9645;51.448;6.260;2023-08-20T11:09:51;33.80;1.00
19025;DHT22;9645;51.448;6.260;2023-08-20T11:12:20;33.70;4.70
19025;DHT22;9645;51.448;6.260;2023-08-20T11:14:47;33.90;1.00
19025;DHT22;9645;51.448;6.260;2023-08-20T11:17:14;33.80;99.90
19025;DHT22;9645;51.448;6.260;2023-08-20T11:19:41;33.80;1.00
19025;DHT22;9645;51.448;6.260;2023-08-20T11:22:08;34.00;99.90
19025;DHT22;9645;51.448;6.260;2023-08-20T11:24:37;34.50;99.90
19025;DHT22;9645;51.448;6.260;2023-08-20T11:27:04;34.50;1.00
19025;DHT22;9645;51.448;6.260;2023-08-20T11:29:31;34.50;99.90
19025;DHT22;9645;51.448;6.260;2023-08-20T11:31:58;34.80;1.00
19025;DHT22;9645;51.448;6.260;2023-08-20T11:34:28;34.70;1.00
19025;DHT22;9645;51.448;6.260;2023-08-20T11:36:56;34.60;1.00
19025;DHT22;9645;51.448;6.260;2023-08-20T11:39:23;34.50;1.00
19025;DHT22;9645;51.448;6.260;2023-08-20T11:41:52;34.30;99.90
19025;DHT22;9645;51.448;6.260;2023-08-20T11:44:20;34.30;99.90
19025;DHT22;9645;51.448;6.260;2023-08-20T11:46:48;34.30;1.00
19025;DHT22;9645;51.448;6.260;2023-08-20T11:49:15;33.90;99.90
19025;DHT22;9645;51.448;6.260;2023-08-20T11:51:43;34.00;99.90
19025;DHT22;9645;51.448;6.260;2023-08-20T11:54:12;34.40;99.90
19025;DHT22;9645;51.448;6.260;2023-08-20T11:56:43;34.40;1.00
19025;DHT22;9645;51.448;6.260;2023-08-20T11:59:13;34.50;1.00
19025;DHT22;9645;51.448;6.260;2023-08-20T12:01:40;34.50;1.00
19025;DHT22;9645;51.448;6.260;2023-08-20T12:04:10;34.40;1.00
19025;DHT22;9645;51.448;6.260;2023-08-20T12:06:37;34.70;99.90
19025;DHT22;9645;51.448;6.260;2023-08-20T12:09:18;34.80;99.90
19025;DHT22;9645;51.448;6.260;2023-08-20T12:11:48;34.50;83.50
19025;DHT22;9645;51.448;6.260;2023-08-20T12:14:17;34.50;1.00
19025;DHT22;9645;51.448;6.260;2023-08-20T12:16:44;34.80;1.00
19025;DHT22;9645;51.448;6.260;2023-08-20T12:19:12;34.70;1.00
19025;DHT22;9645;51.448;6.260;2023-08-20T12:21:39;34.60;1.00
19025;DHT22;9645;51.448;6.260;2023-08-20T12:24:08;34.30;1.00
19025;DHT22;9645;51.448;6.260;2023-08-20T12:26:35;34.00;1.00
19025;DHT22;9645;51.448;6.260;2023-08-20T12:29:02;34.20;99.90
19025;DHT22;9645;51.448;6.260;2023-08-20T12:31:31;34.30;99.90
19025;DHT22;9645;51.448;6.260;2023-08-20T12:33:58;34.30;99.90
19025;DHT22;9645;51.448;6.260;2023-08-20T12:36:25;34.50;99.90
19025;DHT22;9645;51.448;6.260;2023-08-20T12:38:52;34.50;99.90
19025;DHT22;9645;51.448;6.260;2023-08-20T12:41:19;34.40;1.00
19025;DHT22;9645;51.448;6.260;2023-08-20T12:43:46;34.30;99.90
19025;DHT22;9645;51.448;6.260;2023-08-20T12:46:13;34.00;99.90
19025;DHT22;9645;51.448;6.260;2023-08-20T12:48:42;33.90;99.90
19025;DHT22;9645;51.448;6.260;2023-08-20T12:51:09;33.80;99.90
19025;DHT22;9645;51.448;6.260;2023-08-20T12:53:40;33.80;99.90
19025;DHT22;9645;51.448;6.260;2023-08-20T12:56:07;33.70;99.90
19025;DHT22;9645;51.448;6.260;2023-08-20T12:58:34;33.80;99.90
19025;DHT22;9645;51.448;6.260;2023-08-20T13:01:01;33.60;99.90
19025;DHT22;9645;51.448;6.260;2023-08-20T13:03:29;33.70;99.90
19025;DHT22;9645;51.448;6.260;2023-08-20T13:05:58;33.80;1.00
19025;DHT22;9645;51.448;6.260;2023-08-20T13:08:26;33.80;99.90
19025;DHT22;9645;51.448;6.260;2023-08-20T13:10:54;33.60;1.00
19025;DHT22;9645;51.448;6.260;2023-08-20T13:13:22;33.20;1.00
19025;DHT22;9645;51.448;6.260;2023-08-20T13:15:51;33.20;1.00
19025;DHT22;9645;51.448;6.260;2023-08-20T13:18:19;33.20;99.90
19025;DHT22;9645;51.448;6.260;2023-08-20T13:20:51;33.40;99.90
19025;DHT22;9645;51.448;6.260;2023-08-20T13:23:19;33.50;99.90
19025;DHT22;9645;51.448;6.260;2023-08-20T13:25:46;33.60;99.90
19025;DHT22;9645;51.448;6.260;2023-08-20T13:28:13;33.60;1.00
19025;DHT22;9645;51.448;6.260;2023-08-20T13:30:40;33.70;69.40
19025;DHT22;9645;51.448;6.260;2023-08-20T13:33:07;33.60;1.00
19025;DHT22;9645;51.448;6.260;2023-08-20T13:35:34;33.80;99.90
19025;DHT22;9645;51.448;6.260;2023-08-20T13:38:01;33.90;1.00
19025;DHT22;9645;51.448;6.260;2023-08-20T13:40:31;34.00;99.90
19025;DHT22;9645;51.448;6.260;2023-08-20T13:42:58;34.00;1.00
19025;DHT22;9645;51.448;6.260;2023-08-20T13:45:25;34.00;1.00
19025;DHT22;9645;51.448;6.260;2023-08-20T13:47:52;34.30;1.00
19025;DHT22;9645;51.448;6.260;2023-08-20T13:50:19;34.00;99.90
19025;DHT22;9645;51.448;6.260;2023-08-20T13:52:46;34.30;1.00
19025;DHT22;9645;51.448;6.260;2023-08-20T13:55:13;34.10;99.90
19025;DHT22;9645;51.448;6.260;2023-08-20T13:57:42;33.90;99.90
19025;DHT22;9645;51.448;6.260;2023-08-20T14:00:09;33.80;99.90
19025;DHT22;9645;51.448;6.260;2023-08-20T14:02:38;33.80;1.00
19025;DHT22;9645;51.448;6.260;2023-08-20T14:05:05;33.70;99.90
19025;DHT22;9645;51.448;6.260;2023-08-20T14:07:33;33.70;1.00
19025;DHT22;9645;51.448;6.260;2023-08-20T14:10:00;33.30;99.90
19025;DHT22;9645;51.448;6.260;2023-08-20T14:12:27;33.00;1.00
19025;DHT22;9645;51.448;6.260;2023-08-20T14:14:55;33.30;99.90
19025;DHT22;9645;51.448;6.260;2023-08-20T14:17:22;33.40;99.90
19025;DHT22;9645;51.448;6.260;2023-08-20T14:19:49;33.40;1.00
19025;DHT22;9645;51.448;6.260;2023-08-20T14:22:16;33.20;1.00
19025;DHT22;9645;51.448;6.260;2023-08-20T14:24:43;33.20;1.00
19025;DHT22;9645;51.448;6.260;2023-08-20T14:27:10;33.20;1.00
19025;DHT22;9645;51.448;6.260;2023-08-20T14:29:37;33.10;99.90
19025;DHT22;9645;51.448;6.260;2023-08-20T14:32:06;33.30;1.00
19025;DHT22;9645;51.448;6.260;2023-08-20T14:34:33;33.20;1.00
19025;DHT22;9645;51.448;6.260;2023-08-20T14:37:00;33.20;1.00
19025;DHT22;9645;51.448;6.260;2023-08-20T14:39:27;33.10;1.00
19025;DHT22;9645;51.448;6.260;2023-08-20T14:41:56;33.00;1.00
19025;DHT22;9645;51.448;6.260;2023-08-20T14:44:24;33.00;1.00
19025;DHT22;9645;51.448;6.260;2023-08-20T14:46:50;32.70;1.00
19025;DHT22;9645;51.448;6.260;2023-08-20T14:49:19;32.40;1.00
19025;DHT22;9645;51.448;6.260;2023-08-20T14:51:46;32.00;1.00
19025;DHT22;9645;51.448;6.260;2023-08-20T14:54:13;31.80;1.00
19025;DHT22;9645;51.448;6.260;2023-08-20T14:56:40;31.80;58.50
19025;DHT22;9645;51.448;6.260;2023-08-20T14:59:07;31.70;99.90
19025;DHT22;9645;51.448;6.260;2023-08-20T15:01:35;31.70;99.90
19025;DHT22;9645;51.448;6.260;2023-08-20T15:04:02;31.60;99.90
19025;DHT22;9645;51.448;6.260;2023-08-20T15:06:31;31.80;1.00
19025;DHT22;9645;51.448;6.260;2023-08-20T15:08:58;32.10;1.00
19025;DHT22;9645;51.448;6.260;2023-08-20T15:11:25;32.00;1.00
19025;DHT22;9645;51.448;6.260;2023-08-20T15:13:53;31.40;99.90
19025;DHT22;9645;51.448;6.260;2023-08-20T15:16:20;31.20;1.00
19025;DHT22;9645;51.448;6.260;2023-08-20T15:18:47;30.60;1.00
19025;DHT22;9645;51.448;6.260;2023-08-20T15:21:14;30.50;1.00
19025;DHT22;9645;51.448;6.260;2023-08-20T15:23:42;30.40;1.00
19025;DHT22;9645;51.448;6.260;2023-08-20T15:26:09;30.30;1.00
19025;DHT22;9645;51.448;6.260;2023-08-20T15:28:36;30.40;1.00
19025;DHT22;9645;51.448;6.260;2023-08-20T15:31:03;30.40;1.00
19025;DHT22;9645;51.448;6.260;2023-08-20T15:33:30;30.30;1.00
19025;DHT22;9645;51.448;6.260;2023-08-20T15:35:58;30.20;1.00
19025;DHT22;9645;51.448;6.260;2023-08-20T15:38:25;30.20;1.00
19025;DHT22;9645;51.448;6.260;2023-08-20T15:40:54;30.50;1.00
19025;DHT22;9645;51.448;6.260;2023-08-20T15:43:21;30.70;1.00
19025;DHT22;9645;51.448;6.260;2023-08-20T15:45:48;30.90;1.00
19025;DHT22;9645;51.448;6.260;2023-08-20T15:48:15;30.90;1.00
19025;DHT22;9645;51.448;6.260;2023-08-20T15:50:42;30.90;1.00
19025;DHT22;9645;51.448;6.260;2023-08-20T15:53:09;30.90;99.90
19025;DHT22;9645;51.448;6.260;2023-08-20T15:55:36;30.90;99.90
19025;DHT22;9645;51.448;6.260;2023-08-20T15:58:05;30.90;1.00
19025;DHT22;9645;51.448;6.260;2023-08-20T16:00:32;30.70;1.00
19025;DHT22;9645;51.448;6.260;2023-08-20T16:03:01;30.60;99.90
19025;DHT22;9645;51.448;6.260;2023-08-20T16:05:28;30.80;99.90